Main page
METAR-TAF:

METAR-TAF

Airports :

Zeltweg Air Base

Zeltweg, Austria

latitude: 47-12N, longitude: 014-45E, elevation: 677 m

Current weather observation

The report was made 43 minutes ago, at 08:20 UTC
Wind 2 kt from variable directions
Temperature 16°C
Humidity 82%
Pressure 1018 hPa

METAR: LOXZ 210820Z VRB02KT 15KM FEW050CU 16/13 Q1018 NOSIG

Time: 11:03 (09:03 UTC)

Forecast

The report was made 48 minutes ago, at 08:15 UTC
Forecast valid from 21 at 09 UTC to 21 at 18 UTC
Wind 3 kt from variable directions
Visibility 10 km or more
Few clouds at a height of 5000 ft
Temporary
from 21 at 13 UTC to 21 at 17 UTC
Wind 10 kt from the South
Few clouds at a height of 6000 ft
Scattered clouds at a height of 30000 ft

TAF: LOXZ 210815Z 2109/2118 VRB03KT 9999 FEW050 TEMPO 2113/2117 18010KT FEW060 SCT300

Weather observations and forecasts of more than 4000 airports (METAR and TAF reports).

The available stations are represented by yellow and red dots on the map.

Hover mouse over dot to see the name of the station.

Then click to see weather observations and forecasts.

To change the map : click on the green buttons with a black cross to zoom in, on the green button with a dash to zoom out, or on the green arrows for adjacent maps.


METAR-TAF: